sensor_id;sensor_type;location;lat;lon;timestamp;P1;durP1;ratioP1;P2;durP2;ratioP2
48963;SDS011;34776;48.180;16.420;2022-09-24T00:01:11;7.72;;;3.83;;
48963;SDS011;34776;48.180;16.420;2022-09-24T00:03:37;5.57;;;4.18;;
48963;SDS011;34776;48.180;16.420;2022-09-24T00:06:04;6.65;;;4.32;;
48963;SDS011;34776;48.180;16.420;2022-09-24T00:08:30;5.03;;;3.90;;
48963;SDS011;34776;48.180;16.420;2022-09-24T00:10:56;6.82;;;3.92;;
48963;SDS011;34776;48.180;16.420;2022-09-24T00:13:26;7.45;;;5.10;;
48963;SDS011;34776;48.180;16.420;2022-09-24T00:15:51;7.03;;;4.45;;
48963;SDS011;34776;48.180;16.420;2022-09-24T00:18:17;5.30;;;4.45;;
48963;SDS011;34776;48.180;16.420;2022-09-24T00:20:44;6.57;;;5.13;;
48963;SDS011;34776;48.180;16.420;2022-09-24T00:23:10;8.00;;;4.70;;
48963;SDS011;34776;48.180;16.420;2022-09-24T00:25:39;5.70;;;4.43;;
48963;SDS011;34776;48.180;16.420;2022-09-24T00:28:28;6.70;;;4.65;;
48963;SDS011;34776;48.180;16.420;2022-09-24T00:30:54;4.50;;;3.92;;
48963;SDS011;34776;48.180;16.420;2022-09-24T00:33:22;4.63;;;4.07;;
48963;SDS011;34776;48.180;16.420;2022-09-24T00:35:48;5.95;;;4.45;;
48963;SDS011;34776;48.180;16.420;2022-09-24T00:38:13;5.28;;;4.32;;
48963;SDS011;34776;48.180;16.420;2022-09-24T00:40:39;7.95;;;4.53;;
48963;SDS011;34776;48.180;16.420;2022-09-24T00:43:50;6.22;;;4.38;;
48963;SDS011;34776;48.180;16.420;2022-09-24T00:45:53;7.38;;;5.05;;
48963;SDS011;34776;48.180;16.420;2022-09-24T00:48:30;6.97;;;4.90;;
48963;SDS011;34776;48.180;16.420;2022-09-24T00:50:58;4.72;;;4.22;;
48963;SDS011;34776;48.180;16.420;2022-09-24T00:53:24;6.32;;;4.28;;
48963;SDS011;34776;48.180;16.420;2022-09-24T00:55:55;6.07;;;4.68;;
48963;SDS011;34776;48.180;16.420;2022-09-24T00:58:21;4.88;;;4.15;;
48963;SDS011;34776;48.180;16.420;2022-09-24T01:00:47;7.07;;;5.13;;
48963;SDS011;34776;48.180;16.420;2022-09-24T01:03:18;6.53;;;4.90;;
48963;SDS011;34776;48.180;16.420;2022-09-24T01:05:47;7.88;;;4.85;;
48963;SDS011;34776;48.180;16.420;2022-09-24T01:08:12;10.07;;;5.47;;
48963;SDS011;34776;48.180;16.420;2022-09-24T01:25:01;6.50;;;4.95;;
48963;SDS011;34776;48.180;16.420;2022-09-24T01:28:01;8.73;;;6.00;;
48963;SDS011;34776;48.180;16.420;2022-09-24T01:30:31;10.48;;;7.18;;
48963;SDS011;34776;48.180;16.420;2022-09-24T01:33:02;7.28;;;5.82;;
48963;SDS011;34776;48.180;16.420;2022-09-24T01:35:51;8.70;;;6.68;;
48963;SDS011;34776;48.180;16.420;2022-09-24T01:38:20;5.75;;;4.70;;
48963;SDS011;34776;48.180;16.420;2022-09-24T01:40:50;6.80;;;5.70;;
48963;SDS011;34776;48.180;16.420;2022-09-24T01:43:23;7.55;;;5.85;;
48963;SDS011;34776;48.180;16.420;2022-09-24T01:45:51;8.43;;;6.25;;
48963;SDS011;34776;48.180;16.420;2022-09-24T01:48:17;7.90;;;5.03;;
48963;SDS011;34776;48.180;16.420;2022-09-24T01:50:50;8.90;;;5.55;;
48963;SDS011;34776;48.180;16.420;2022-09-24T01:53:25;7.40;;;5.63;;
48963;SDS011;34776;48.180;16.420;2022-09-24T01:55:58;7.28;;;5.63;;
48963;SDS011;34776;48.180;16.420;2022-09-24T01:58:31;6.57;;;5.05;;
48963;SDS011;34776;48.180;16.420;2022-09-24T02:01:04;8.93;;;5.22;;
48963;SDS011;34776;48.180;16.420;2022-09-24T02:03:35;7.68;;;5.75;;
48963;SDS011;34776;48.180;16.420;2022-09-24T02:06:14;8.00;;;5.15;;
48963;SDS011;34776;48.180;16.420;2022-09-24T02:08:45;8.98;;;5.70;;
48963;SDS011;34776;48.180;16.420;2022-09-24T02:11:14;12.65;;;5.68;;
48963;SDS011;34776;48.180;16.420;2022-09-24T02:14:03;8.05;;;5.53;;
48963;SDS011;34776;48.180;16.420;2022-09-24T02:16:34;6.90;;;5.18;;
48963;SDS011;34776;48.180;16.420;2022-09-24T02:19:04;8.15;;;4.90;;
48963;SDS011;34776;48.180;16.420;2022-09-24T02:21:34;6.03;;;4.38;;
48963;SDS011;34776;48.180;16.420;2022-09-24T02:24:05;6.85;;;5.55;;
48963;SDS011;34776;48.180;16.420;2022-09-24T02:26:36;7.03;;;4.65;;
48963;SDS011;34776;48.180;16.420;2022-09-24T02:29:02;9.25;;;5.32;;
48963;SDS011;34776;48.180;16.420;2022-09-24T02:31:29;7.93;;;5.47;;
48963;SDS011;34776;48.180;16.420;2022-09-24T02:33:57;7.80;;;6.00;;
48963;SDS011;34776;48.180;16.420;2022-09-24T02:36:53;9.57;;;5.60;;
48963;SDS011;34776;48.180;16.420;2022-09-24T02:39:23;7.47;;;6.10;;
48963;SDS011;34776;48.180;16.420;2022-09-24T02:41:48;7.93;;;5.90;;
48963;SDS011;34776;48.180;16.420;2022-09-24T02:44:16;6.30;;;5.00;;
48963;SDS011;34776;48.180;16.420;2022-09-24T02:46:42;8.45;;;4.53;;
48963;SDS011;34776;48.180;16.420;2022-09-24T02:49:08;5.57;;;4.90;;
48963;SDS011;34776;48.180;16.420;2022-09-24T02:51:34;6.03;;;4.63;;
48963;SDS011;34776;48.180;16.420;2022-09-24T02:54:01;6.85;;;5.18;;
48963;SDS011;34776;48.180;16.420;2022-09-24T02:56:27;6.90;;;5.60;;
48963;SDS011;34776;48.180;16.420;2022-09-24T02:58:53;6.85;;;5.30;;
48963;SDS011;34776;48.180;16.420;2022-09-24T03:01:19;6.18;;;5.07;;
48963;SDS011;34776;48.180;16.420;2022-09-24T03:03:45;7.13;;;6.03;;
48963;SDS011;34776;48.180;16.420;2022-09-24T03:06:11;10.88;;;6.13;;
48963;SDS011;34776;48.180;16.420;2022-09-24T03:08:37;8.73;;;6.82;;
48963;SDS011;34776;48.180;16.420;2022-09-24T03:11:03;7.75;;;6.22;;
48963;SDS011;34776;48.180;16.420;2022-09-24T03:13:30;7.68;;;6.43;;
48963;SDS011;34776;48.180;16.420;2022-09-24T03:15:55;10.77;;;5.50;;
48963;SDS011;34776;48.180;16.420;2022-09-24T03:18:20;7.63;;;5.25;;
48963;SDS011;34776;48.180;16.420;2022-09-24T03:20:56;6.97;;;5.30;;
48963;SDS011;34776;48.180;16.420;2022-09-24T03:23:22;6.97;;;5.38;;
48963;SDS011;34776;48.180;16.420;2022-09-24T03:25:48;9.10;;;5.65;;
48963;SDS011;34776;48.180;16.420;2022-09-24T03:28:13;6.78;;;5.47;;
48963;SDS011;34776;48.180;16.420;2022-09-24T03:30:39;7.97;;;5.45;;
48963;SDS011;34776;48.180;16.420;2022-09-24T03:33:23;8.73;;;5.68;;
48963;SDS011;34776;48.180;16.420;2022-09-24T03:35:48;7.30;;;5.40;;
48963;SDS011;34776;48.180;16.420;2022-09-24T03:38:13;8.65;;;5.30;;
48963;SDS011;34776;48.180;16.420;2022-09-24T03:40:39;7.63;;;5.38;;
48963;SDS011;34776;48.180;16.420;2022-09-24T03:43:04;6.43;;;5.22;;
48963;SDS011;34776;48.180;16.420;2022-09-24T03:45:29;6.38;;;5.03;;
48963;SDS011;34776;48.180;16.420;2022-09-24T03:47:55;6.82;;;5.40;;
48963;SDS011;34776;48.180;16.420;2022-09-24T03:50:20;6.32;;;5.45;;
48963;SDS011;34776;48.180;16.420;2022-09-24T03:52:45;7.90;;;4.95;;
48963;SDS011;34776;48.180;16.420;2022-09-24T03:55:11;5.82;;;4.90;;
48963;SDS011;34776;48.180;16.420;2022-09-24T03:57:36;7.78;;;5.32;;
48963;SDS011;34776;48.180;16.420;2022-09-24T04:00:02;7.07;;;5.72;;
48963;SDS011;34776;48.180;16.420;2022-09-24T04:02:28;8.55;;;5.22;;
48963;SDS011;34776;48.180;16.420;2022-09-24T04:04:53;10.30;;;6.22;;
48963;SDS011;34776;48.180;16.420;2022-09-24T04:07:19;6.65;;;5.90;;
48963;SDS011;34776;48.180;16.420;2022-09-24T04:09:44;8.85;;;5.80;;
48963;SDS011;34776;48.180;16.420;2022-09-24T04:12:09;8.82;;;5.70;;
48963;SDS011;34776;48.180;16.420;2022-09-24T04:14:35;7.00;;;5.50;;
48963;SDS011;34776;48.180;16.420;2022-09-24T04:17:01;7.13;;;5.13;;
48963;SDS011;34776;48.180;16.420;2022-09-24T04:19:27;6.22;;;5.43;;
48963;SDS011;34776;48.180;16.420;2022-09-24T04:21:53;6.65;;;5.30;;
48963;SDS011;34776;48.180;16.420;2022-09-24T04:24:18;8.35;;;5.90;;
48963;SDS011;34776;48.180;16.420;2022-09-24T04:26:44;7.00;;;5.57;;
48963;SDS011;34776;48.180;16.420;2022-09-24T04:29:09;7.78;;;5.40;;
48963;SDS011;34776;48.180;16.420;2022-09-24T04:31:34;8.57;;;5.93;;
48963;SDS011;34776;48.180;16.420;2022-09-24T04:34:00;9.00;;;6.22;;
48963;SDS011;34776;48.180;16.420;2022-09-24T04:36:25;7.22;;;6.00;;
48963;SDS011;34776;48.180;16.420;2022-09-24T04:38:51;6.65;;;5.45;;
48963;SDS011;34776;48.180;16.420;2022-09-24T04:41:16;6.65;;;5.38;;
48963;SDS011;34776;48.180;16.420;2022-09-24T04:43:42;7.18;;;5.82;;
48963;SDS011;34776;48.180;16.420;2022-09-24T04:46:10;6.70;;;5.45;;
48963;SDS011;34776;48.180;16.420;2022-09-24T04:48:37;9.25;;;6.10;;
48963;SDS011;34776;48.180;16.420;2022-09-24T04:51:04;9.93;;;5.63;;
48963;SDS011;34776;48.180;16.420;2022-09-24T04:53:30;7.07;;;5.50;;
48963;SDS011;34776;48.180;16.420;2022-09-24T04:55:57;8.15;;;6.32;;
48963;SDS011;34776;48.180;16.420;2022-09-24T04:58:24;8.15;;;5.88;;
48963;SDS011;34776;48.180;16.420;2022-09-24T05:00:50;6.45;;;5.40;;
48963;SDS011;34776;48.180;16.420;2022-09-24T05:03:15;6.82;;;4.93;;
48963;SDS011;34776;48.180;16.420;2022-09-24T05:05:41;5.80;;;5.18;;
48963;SDS011;34776;48.180;16.420;2022-09-24T05:08:06;6.55;;;5.00;;
48963;SDS011;34776;48.180;16.420;2022-09-24T05:10:31;7.60;;;5.80;;
48963;SDS011;34776;48.180;16.420;2022-09-24T05:12:57;7.05;;;5.43;;
48963;SDS011;34776;48.180;16.420;2022-09-24T05:15:23;6.68;;;5.10;;
48963;SDS011;34776;48.180;16.420;2022-09-24T05:17:48;6.20;;;5.25;;
48963;SDS011;34776;48.180;16.420;2022-09-24T05:20:14;5.82;;;5.03;;
48963;SDS011;34776;48.180;16.420;2022-09-24T05:22:41;6.90;;;5.97;;
48963;SDS011;34776;48.180;16.420;2022-09-24T05:25:10;8.10;;;6.50;;
48963;SDS011;34776;48.180;16.420;2022-09-24T05:27:42;6.97;;;5.75;;
48963;SDS011;34776;48.180;16.420;2022-09-24T05:30:11;10.75;;;6.72;;
48963;SDS011;34776;48.180;16.420;2022-09-24T05:32:37;9.23;;;6.45;;
48963;SDS011;34776;48.180;16.420;2022-09-24T05:35:03;10.55;;;6.25;;
48963;SDS011;34776;48.180;16.420;2022-09-24T05:37:30;7.97;;;6.38;;
48963;SDS011;34776;48.180;16.420;2022-09-24T05:39:55;7.72;;;6.38;;
48963;SDS011;34776;48.180;16.420;2022-09-24T05:42:41;7.07;;;5.73;;
48963;SDS011;34776;48.180;16.420;2022-09-24T05:45:06;6.97;;;5.43;;
48963;SDS011;34776;48.180;16.420;2022-09-24T05:47:32;8.75;;;5.95;;
48963;SDS011;34776;48.180;16.420;2022-09-24T05:49:57;11.80;;;6.80;;
48963;SDS011;34776;48.180;16.420;2022-09-24T05:52:22;8.35;;;5.63;;
48963;SDS011;34776;48.180;16.420;2022-09-24T05:54:48;7.85;;;6.32;;
48963;SDS011;34776;48.180;16.420;2022-09-24T05:57:13;11.48;;;6.57;;
48963;SDS011;34776;48.180;16.420;2022-09-24T05:59:39;7.15;;;5.68;;
48963;SDS011;34776;48.180;16.420;2022-09-24T06:02:05;8.20;;;6.10;;
48963;SDS011;34776;48.180;16.420;2022-09-24T06:04:30;7.43;;;6.05;;
48963;SDS011;34776;48.180;16.420;2022-09-24T06:06:55;7.90;;;5.63;;
48963;SDS011;34776;48.180;16.420;2022-09-24T06:09:20;6.97;;;6.28;;
48963;SDS011;34776;48.180;16.420;2022-09-24T06:11:46;7.40;;;5.78;;
48963;SDS011;34776;48.180;16.420;2022-09-24T06:14:14;8.43;;;6.88;;
48963;SDS011;34776;48.180;16.420;2022-09-24T06:16:39;8.75;;;6.35;;
48963;SDS011;34776;48.180;16.420;2022-09-24T06:19:05;10.23;;;6.35;;
48963;SDS011;34776;48.180;16.420;2022-09-24T06:21:30;7.95;;;6.38;;
48963;SDS011;34776;48.180;16.420;2022-09-24T06:23:56;9.38;;;7.22;;
48963;SDS011;34776;48.180;16.420;2022-09-24T06:26:21;9.07;;;6.93;;
48963;SDS011;34776;48.180;16.420;2022-09-24T06:28:46;7.88;;;6.53;;
48963;SDS011;34776;48.180;16.420;2022-09-24T06:31:12;7.78;;;6.40;;
48963;SDS011;34776;48.180;16.420;2022-09-24T06:33:37;8.32;;;7.22;;
48963;SDS011;34776;48.180;16.420;2022-09-24T06:36:04;9.68;;;7.07;;
48963;SDS011;34776;48.180;16.420;2022-09-24T06:38:30;8.63;;;7.72;;
48963;SDS011;34776;48.180;16.420;2022-09-24T06:40:59;9.02;;;6.57;;
48963;SDS011;34776;48.180;16.420;2022-09-24T06:43:26;9.30;;;6.78;;
48963;SDS011;34776;48.180;16.420;2022-09-24T06:45:53;10.60;;;6.75;;
48963;SDS011;34776;48.180;16.420;2022-09-24T06:48:19;7.45;;;6.70;;
48963;SDS011;34776;48.180;16.420;2022-09-24T06:50:46;8.82;;;6.75;;
48963;SDS011;34776;48.180;16.420;2022-09-24T06:53:12;8.75;;;7.00;;
48963;SDS011;34776;48.180;16.420;2022-09-24T06:55:37;12.60;;;6.43;;
48963;SDS011;34776;48.180;16.420;2022-09-24T06:58:04;7.85;;;6.43;;
48963;SDS011;34776;48.180;16.420;2022-09-24T07:00:31;8.43;;;6.25;;
48963;SDS011;34776;48.180;16.420;2022-09-24T07:02:57;7.63;;;5.60;;
48963;SDS011;34776;48.180;16.420;2022-09-24T07:05:22;7.47;;;5.90;;
48963;SDS011;34776;48.180;16.420;2022-09-24T07:07:47;7.47;;;5.90;;
48963;SDS011;34776;48.180;16.420;2022-09-24T07:10:13;6.90;;;5.88;;
48963;SDS011;34776;48.180;16.420;2022-09-24T07:12:39;5.65;;;5.07;;
48963;SDS011;34776;48.180;16.420;2022-09-24T07:15:06;11.95;;;6.18;;
48963;SDS011;34776;48.180;16.420;2022-09-24T07:17:31;10.98;;;7.50;;
48963;SDS011;34776;48.180;16.420;2022-09-24T07:19:57;8.10;;;7.13;;
48963;SDS011;34776;48.180;16.420;2022-09-24T07:22:22;6.30;;;5.63;;
48963;SDS011;34776;48.180;16.420;2022-09-24T07:24:48;8.55;;;6.72;;
48963;SDS011;34776;48.180;16.420;2022-09-24T07:27:13;7.80;;;6.90;;
48963;SDS011;34776;48.180;16.420;2022-09-24T07:29:39;16.25;;;13.23;;
48963;SDS011;34776;48.180;16.420;2022-09-24T07:32:05;8.15;;;7.00;;
48963;SDS011;34776;48.180;16.420;2022-09-24T07:34:30;9.43;;;7.55;;
48963;SDS011;34776;48.180;16.420;2022-09-24T07:36:56;8.00;;;6.15;;
48963;SDS011;34776;48.180;16.420;2022-09-24T07:39:22;9.27;;;7.00;;
48963;SDS011;34776;48.180;16.420;2022-09-24T07:41:49;7.68;;;6.32;;
48963;SDS011;34776;48.180;16.420;2022-09-24T07:44:16;7.57;;;6.38;;
48963;SDS011;34776;48.180;16.420;2022-09-24T07:46:45;8.00;;;6.38;;
48963;SDS011;34776;48.180;16.420;2022-09-24T07:49:12;11.88;;;6.20;;
48963;SDS011;34776;48.180;16.420;2022-09-24T07:51:38;8.70;;;5.30;;
48963;SDS011;34776;48.180;16.420;2022-09-24T07:54:03;7.07;;;6.22;;
48963;SDS011;34776;48.180;16.420;2022-09-24T07:56:29;7.25;;;6.28;;
48963;SDS011;34776;48.180;16.420;2022-09-24T07:58:56;6.25;;;5.65;;
48963;SDS011;34776;48.180;16.420;2022-09-24T08:01:21;9.18;;;5.55;;
48963;SDS011;34776;48.180;16.420;2022-09-24T08:03:49;8.93;;;5.68;;
48963;SDS011;34776;48.180;16.420;2022-09-24T08:06:16;7.15;;;5.47;;
48963;SDS011;34776;48.180;16.420;2022-09-24T08:08:42;5.57;;;4.63;;
48963;SDS011;34776;48.180;16.420;2022-09-24T08:11:08;9.40;;;5.70;;
48963;SDS011;34776;48.180;16.420;2022-09-24T08:13:35;8.23;;;4.90;;
48963;SDS011;34776;48.180;16.420;2022-09-24T08:16:01;11.38;;;5.63;;
48963;SDS011;34776;48.180;16.420;2022-09-24T08:18:28;10.15;;;5.57;;
48963;SDS011;34776;48.180;16.420;2022-09-24T08:20:55;6.75;;;5.90;;
48963;SDS011;34776;48.180;16.420;2022-09-24T08:23:21;9.30;;;6.75;;
48963;SDS011;34776;48.180;16.420;2022-09-24T08:25:47;8.30;;;6.65;;
48963;SDS011;34776;48.180;16.420;2022-09-24T08:28:12;6.70;;;6.10;;
48963;SDS011;34776;48.180;16.420;2022-09-24T08:30:40;6.72;;;6.00;;
48963;SDS011;34776;48.180;16.420;2022-09-24T08:33:07;6.90;;;6.20;;
48963;SDS011;34776;48.180;16.420;2022-09-24T08:35:33;8.40;;;6.78;;
48963;SDS011;34776;48.180;16.420;2022-09-24T08:38:00;7.50;;;5.75;;
48963;SDS011;34776;48.180;16.420;2022-09-24T08:40:27;8.18;;;6.85;;
48963;SDS011;34776;48.180;16.420;2022-09-24T08:43:08;6.97;;;6.07;;
48963;SDS011;34776;48.180;16.420;2022-09-24T08:45:50;13.10;;;6.88;;
48963;SDS011;34776;48.180;16.420;2022-09-24T08:48:38;7.28;;;6.15;;
48963;SDS011;34776;48.180;16.420;2022-09-24T08:51:10;7.05;;;6.30;;
48963;SDS011;34776;48.180;16.420;2022-09-24T08:56:31;8.13;;;6.15;;
48963;SDS011;34776;48.180;16.420;2022-09-24T08:59:01;6.70;;;5.38;;
48963;SDS011;34776;48.180;16.420;2022-09-24T09:01:37;7.05;;;5.80;;
48963;SDS011;34776;48.180;16.420;2022-09-24T09:07:13;7.10;;;5.68;;
48963;SDS011;34776;48.180;16.420;2022-09-24T09:12:11;6.30;;;5.43;;
48963;SDS011;34776;48.180;16.420;2022-09-24T09:20:09;8.55;;;7.18;;
48963;SDS011;34776;48.180;16.420;2022-09-24T09:22:41;9.32;;;6.28;;
48963;SDS011;34776;48.180;16.420;2022-09-24T09:25:16;7.35;;;5.90;;
48963;SDS011;34776;48.180;16.420;2022-09-24T09:27:45;10.07;;;6.60;;
48963;SDS011;34776;48.180;16.420;2022-09-24T09:30:14;9.65;;;7.40;;
48963;SDS011;34776;48.180;16.420;2022-09-24T09:32:57;6.60;;;5.90;;
48963;SDS011;34776;48.180;16.420;2022-09-24T09:35:54;7.30;;;6.68;;
48963;SDS011;34776;48.180;16.420;2022-09-24T09:41:02;7.07;;;6.35;;
48963;SDS011;34776;48.180;16.420;2022-09-24T09:43:34;7.78;;;7.03;;
48963;SDS011;34776;48.180;16.420;2022-09-24T09:46:09;8.02;;;6.82;;
48963;SDS011;34776;48.180;16.420;2022-09-24T09:48:43;8.07;;;6.93;;
48963;SDS011;34776;48.180;16.420;2022-09-24T09:51:19;10.27;;;6.97;;
48963;SDS011;34776;48.180;16.420;2022-09-24T09:53:53;7.65;;;6.82;;
48963;SDS011;34776;48.180;16.420;2022-09-24T09:56:29;8.65;;;6.80;;
48963;SDS011;34776;48.180;16.420;2022-09-24T09:59:00;10.10;;;7.57;;
48963;SDS011;34776;48.180;16.420;2022-09-24T10:01:32;9.40;;;6.82;;
48963;SDS011;34776;48.180;16.420;2022-09-24T10:04:00;6.95;;;6.25;;
48963;SDS011;34776;48.180;16.420;2022-09-24T10:06:33;7.75;;;6.95;;
48963;SDS011;34776;48.180;16.420;2022-09-24T10:09:16;6.95;;;5.45;;
48963;SDS011;34776;48.180;16.420;2022-09-24T10:11:46;9.18;;;6.13;;
48963;SDS011;34776;48.180;16.420;2022-09-24T10:14:13;7.07;;;6.38;;
48963;SDS011;34776;48.180;16.420;2022-09-24T10:16:41;8.10;;;7.15;;
48963;SDS011;34776;48.180;16.420;2022-09-24T10:19:24;7.13;;;6.43;;
48963;SDS011;34776;48.180;16.420;2022-09-24T10:21:51;8.18;;;7.10;;
48963;SDS011;34776;48.180;16.420;2022-09-24T10:24:20;6.97;;;5.97;;
48963;SDS011;34776;48.180;16.420;2022-09-24T10:26:47;6.93;;;5.90;;
48963;SDS011;34776;48.180;16.420;2022-09-24T10:29:24;7.00;;;5.63;;
48963;SDS011;34776;48.180;16.420;2022-09-24T10:32:16;7.07;;;6.38;;
48963;SDS011;34776;48.180;16.420;2022-09-24T10:34:56;8.10;;;6.95;;
48963;SDS011;34776;48.180;16.420;2022-09-24T10:37:23;6.78;;;6.13;;
48963;SDS011;34776;48.180;16.420;2022-09-24T10:39:59;7.50;;;5.53;;
48963;SDS011;34776;48.180;16.420;2022-09-24T10:42:26;14.25;;;7.20;;
48963;SDS011;34776;48.180;16.420;2022-09-24T10:44:53;13.27;;;6.75;;
48963;SDS011;34776;48.180;16.420;2022-09-24T10:47:41;5.93;;;5.32;;
48963;SDS011;34776;48.180;16.420;2022-09-24T10:50:41;8.00;;;6.40;;
48963;SDS011;34776;48.180;16.420;2022-09-24T10:53:29;7.38;;;5.93;;
48963;SDS011;34776;48.180;16.420;2022-09-24T10:58:41;6.85;;;5.78;;
48963;SDS011;34776;48.180;16.420;2022-09-24T11:22:56;7.97;;;5.43;;
48963;SDS011;34776;48.180;16.420;2022-09-24T11:36:39;6.20;;;4.22;;
48963;SDS011;34776;48.180;16.420;2022-09-24T11:42:20;10.25;;;6.10;;
48963;SDS011;34776;48.180;16.420;2022-09-24T11:44:55;6.65;;;5.55;;
48963;SDS011;34776;48.180;16.420;2022-09-24T11:47:50;7.30;;;5.00;;
48963;SDS011;34776;48.180;16.420;2022-09-24T11:53:24;5.78;;;5.20;;
48963;SDS011;34776;48.180;16.420;2022-09-24T11:56:00;8.88;;;4.93;;
48963;SDS011;34776;48.180;16.420;2022-09-24T11:58:33;7.15;;;5.40;;
48963;SDS011;34776;48.180;16.420;2022-09-24T12:01:16;8.35;;;5.53;;
48963;SDS011;34776;48.180;16.420;2022-09-24T12:06:44;6.72;;;5.57;;
48963;SDS011;34776;48.180;16.420;2022-09-24T12:09:26;8.23;;;4.97;;
48963;SDS011;34776;48.180;16.420;2022-09-24T12:12:20;6.70;;;5.00;;
48963;SDS011;34776;48.180;16.420;2022-09-24T12:14:50;8.23;;;5.68;;
48963;SDS011;34776;48.180;16.420;2022-09-24T12:18:05;7.68;;;5.65;;
48963;SDS011;34776;48.180;16.420;2022-09-24T12:22:49;12.03;;;6.10;;
48963;SDS011;34776;48.180;16.420;2022-09-24T12:25:20;11.90;;;5.70;;
48963;SDS011;34776;48.180;16.420;2022-09-24T12:27:45;8.57;;;4.75;;
48963;SDS011;34776;48.180;16.420;2022-09-24T12:33:42;13.48;;;4.53;;
48963;SDS011;34776;48.180;16.420;2022-09-24T12:36:19;18.65;;;6.28;;
48963;SDS011;34776;48.180;16.420;2022-09-24T12:39:02;6.10;;;5.15;;
48963;SDS011;34776;48.180;16.420;2022-09-24T12:41:38;4.03;;;3.65;;
48963;SDS011;34776;48.180;16.420;2022-09-24T12:46:46;5.07;;;4.50;;
48963;SDS011;34776;48.180;16.420;2022-09-24T12:51:51;10.63;;;4.90;;
48963;SDS011;34776;48.180;16.420;2022-09-24T12:57:03;5.60;;;4.95;;
48963;SDS011;34776;48.180;16.420;2022-09-24T12:59:50;6.18;;;4.35;;
48963;SDS011;34776;48.180;16.420;2022-09-24T13:02:17;5.43;;;4.10;;
48963;SDS011;34776;48.180;16.420;2022-09-24T13:04:49;7.63;;;4.65;;
48963;SDS011;34776;48.180;16.420;2022-09-24T13:07:31;7.03;;;4.80;;
48963;SDS011;34776;48.180;16.420;2022-09-24T13:10:21;5.38;;;4.30;;
48963;SDS011;34776;48.180;16.420;2022-09-24T13:12:49;4.45;;;3.78;;
48963;SDS011;34776;48.180;16.420;2022-09-24T13:15:23;5.57;;;3.80;;
48963;SDS011;34776;48.180;16.420;2022-09-24T13:20:34;14.93;;;3.78;;
48963;SDS011;34776;48.180;16.420;2022-09-24T13:25:56;4.90;;;3.97;;
48963;SDS011;34776;48.180;16.420;2022-09-24T13:28:26;9.85;;;3.25;;
48963;SDS011;34776;48.180;16.420;2022-09-24T13:30:58;5.88;;;3.90;;
48963;SDS011;34776;48.180;16.420;2022-09-24T13:33:33;4.25;;;3.20;;
48963;SDS011;34776;48.180;16.420;2022-09-24T13:44:55;4.20;;;3.30;;
48963;SDS011;34776;48.180;16.420;2022-09-24T13:47:39;3.80;;;3.13;;
48963;SDS011;34776;48.180;16.420;2022-09-24T13:52:48;5.10;;;3.30;;
48963;SDS011;34776;48.180;16.420;2022-09-24T13:55:30;5.03;;;3.20;;
48963;SDS011;34776;48.180;16.420;2022-09-24T13:57:58;7.38;;;3.45;;
48963;SDS011;34776;48.180;16.420;2022-09-24T14:00:24;3.28;;;2.92;;
48963;SDS011;34776;48.180;16.420;2022-09-24T14:05:41;5.13;;;3.00;;
48963;SDS011;34776;48.180;16.420;2022-09-24T14:08:08;3.50;;;3.03;;
48963;SDS011;34776;48.180;16.420;2022-09-24T14:10:37;4.05;;;3.30;;
48963;SDS011;34776;48.180;16.420;2022-09-24T14:13:23;5.10;;;3.40;;
48963;SDS011;34776;48.180;16.420;2022-09-24T14:15:56;3.40;;;3.10;;
48963;SDS011;34776;48.180;16.420;2022-09-24T14:18:23;4.10;;;3.45;;
48963;SDS011;34776;48.180;16.420;2022-09-24T14:21:03;5.15;;;3.92;;
48963;SDS011;34776;48.180;16.420;2022-09-24T14:23:50;4.38;;;3.28;;
48963;SDS011;34776;48.180;16.420;2022-09-24T14:28:53;7.63;;;3.40;;
48963;SDS011;34776;48.180;16.420;2022-09-24T14:31:21;4.43;;;3.10;;
48963;SDS011;34776;48.180;16.420;2022-09-24T14:33:47;3.53;;;3.20;;
48963;SDS011;34776;48.180;16.420;2022-09-24T14:36:13;5.95;;;3.28;;
48963;SDS011;34776;48.180;16.420;2022-09-24T14:38:43;5.15;;;3.40;;
48963;SDS011;34776;48.180;16.420;2022-09-24T14:41:14;4.70;;;3.73;;
48963;SDS011;34776;48.180;16.420;2022-09-24T14:43:53;3.90;;;3.35;;
48963;SDS011;34776;48.180;16.420;2022-09-24T14:46:27;4.75;;;3.50;;
48963;SDS011;34776;48.180;16.420;2022-09-24T14:49:13;6.15;;;3.65;;
48963;SDS011;34776;48.180;16.420;2022-09-24T14:51:50;6.60;;;3.33;;
48963;SDS011;34776;48.180;16.420;2022-09-24T14:54:22;5.43;;;3.17;;
48963;SDS011;34776;48.180;16.420;2022-09-24T14:56:52;4.45;;;3.30;;
48963;SDS011;34776;48.180;16.420;2022-09-24T14:59:26;3.67;;;3.30;;
48963;SDS011;34776;48.180;16.420;2022-09-24T15:02:04;5.85;;;3.58;;
48963;SDS011;34776;48.180;16.420;2022-09-24T15:04:35;3.67;;;2.92;;
48963;SDS011;34776;48.180;16.420;2022-09-24T15:07:01;4.07;;;2.92;;
48963;SDS011;34776;48.180;16.420;2022-09-24T15:09:28;3.70;;;2.97;;
48963;SDS011;34776;48.180;16.420;2022-09-24T15:12:05;5.28;;;3.10;;
48963;SDS011;34776;48.180;16.420;2022-09-24T15:14:32;3.58;;;2.90;;
48963;SDS011;34776;48.180;16.420;2022-09-24T15:17:08;3.55;;;3.20;;
48963;SDS011;34776;48.180;16.420;2022-09-24T15:19:43;3.67;;;3.13;;
48963;SDS011;34776;48.180;16.420;2022-09-24T15:22:09;4.43;;;2.95;;
48963;SDS011;34776;48.180;16.420;2022-09-24T15:24:34;3.78;;;2.90;;
48963;SDS011;34776;48.180;16.420;2022-09-24T15:27:20;4.95;;;3.30;;
48963;SDS011;34776;48.180;16.420;2022-09-24T15:29:48;3.65;;;3.25;;
48963;SDS011;34776;48.180;16.420;2022-09-24T15:32:15;4.40;;;3.50;;
48963;SDS011;34776;48.180;16.420;2022-09-24T15:34:42;5.50;;;3.08;;
48963;SDS011;34776;48.180;16.420;2022-09-24T15:37:14;5.93;;;3.40;;
48963;SDS011;34776;48.180;16.420;2022-09-24T15:39:42;5.45;;;3.40;;
48963;SDS011;34776;48.180;16.420;2022-09-24T15:42:16;10.73;;;3.90;;
48963;SDS011;34776;48.180;16.420;2022-09-24T15:44:43;4.68;;;3.15;;
48963;SDS011;34776;48.180;16.420;2022-09-24T15:47:09;3.80;;;2.63;;
48963;SDS011;34776;48.180;16.420;2022-09-24T15:49:36;3.47;;;3.15;;
48963;SDS011;34776;48.180;16.420;2022-09-24T15:52:04;3.38;;;3.08;;
48963;SDS011;34776;48.180;16.420;2022-09-24T15:54:33;3.72;;;3.10;;
48963;SDS011;34776;48.180;16.420;2022-09-24T15:56:59;4.13;;;3.20;;
48963;SDS011;34776;48.180;16.420;2022-09-24T15:59:25;4.07;;;3.05;;
48963;SDS011;34776;48.180;16.420;2022-09-24T16:01:53;5.95;;;3.80;;
48963;SDS011;34776;48.180;16.420;2022-09-24T16:04:21;3.30;;;3.00;;
48963;SDS011;34776;48.180;16.420;2022-09-24T16:06:47;4.20;;;3.40;;
48963;SDS011;34776;48.180;16.420;2022-09-24T16:09:13;5.40;;;3.40;;
48963;SDS011;34776;48.180;16.420;2022-09-24T16:11:39;7.78;;;3.10;;
48963;SDS011;34776;48.180;16.420;2022-09-24T16:14:04;3.10;;;2.80;;
48963;SDS011;34776;48.180;16.420;2022-09-24T16:16:29;2.42;;;2.22;;
48963;SDS011;34776;48.180;16.420;2022-09-24T16:18:55;6.05;;;3.10;;
48963;SDS011;34776;48.180;16.420;2022-09-24T16:21:20;3.75;;;2.97;;
48963;SDS011;34776;48.180;16.420;2022-09-24T16:23:46;3.67;;;3.00;;
48963;SDS011;34776;48.180;16.420;2022-09-24T16:26:11;5.95;;;3.05;;
48963;SDS011;34776;48.180;16.420;2022-09-24T16:28:36;3.90;;;3.35;;
48963;SDS011;34776;48.180;16.420;2022-09-24T16:31:05;5.13;;;3.10;;
48963;SDS011;34776;48.180;16.420;2022-09-24T16:33:31;5.43;;;3.22;;
48963;SDS011;34776;48.180;16.420;2022-09-24T16:36:05;4.82;;;3.47;;
48963;SDS011;34776;48.180;16.420;2022-09-24T16:38:37;5.40;;;3.67;;
48963;SDS011;34776;48.180;16.420;2022-09-24T16:41:04;6.20;;;3.30;;